Latest Coastal Weather Observations for Lake Macquarie - Cooranbong

IDN60701

Issued at 11:01 pm EST Wednesday 25 May 2016 (issued every 10 minutes, with the page automatically refreshed every 10 minutes)

About coastal observations | Map of coastal stations | Coastal observations for NSW | Marine services | Other Formats
Station Details ID: 061412 Name: LAKE MACQUARIE AWS Lat: -33.09 Lon: 151.46 Height: 6.0 m
Data from the previous 72 hours. | See also: Recent months at Lake Macquarie - Cooranbong
Date/Time
EST
Temp

°C
Wind Pressure Rain
since 9am
mm
Weather Cloud Vis
km
Sea
Height
m
Swell
Dir
 
Speed
knots
Gust
knots
hPa Trend Height
m
Period
s
Dir
25/11:00pm 7.5 CALM 0 0 1013.5 - 0.0 - - - - - - -
25/10:30pm 7.5 CALM 0 0 1013.7 - 0.0 - - - - - - -
25/10:00pm 8.6 CALM 0 0 1013.7 - 0.0 - - - - - - -
25/09:30pm 8.8 CALM 0 0 1014.2 - 0.0 - - - - - - -
25/09:00pm 9.4 CALM 0 0 1014.3 - 0.0 - - - - - - -
25/08:30pm 9.6 CALM 0 0 1014.3 - 0.0 - - - - - - -
25/08:00pm 9.8 CALM 0 0 1014.2 - 0.0 - - - - - - -
25/07:30pm 10.0 CALM 0 0 1014.2 - 0.0 - - - - - - -
25/07:00pm 10.1 CALM 0 0 1014.3 - 0.0 - - - - - - -
25/06:30pm 11.2 CALM 0 0 1014.0 - 0.0 - - - - - - -
25/06:00pm 12.0 CALM 0 0 1014.0 - 0.0 - - - - - - -
25/05:30pm 13.4 CALM 0 0 1013.8 - 0.0 - - - - - - -
25/05:00pm 15.4 CALM 0 1 1013.6 - 0.0 - - - - - - -
25/04:30pm 17.1 E 4 6 1013.5 - 0.0 - - - - - - -
25/04:00pm 18.2 E 5 7 1013.5 - 0.0 - - - - - - -
25/03:30pm 19.9 E 4 7 1013.6 - 0.0 - - - - - - -
25/03:00pm 20.3 E 4 7 1013.6 - 0.0 - - - - - - -
25/02:30pm 21.2 E 4 7 1013.6 - 0.0 - - - - - - -
25/02:00pm 21.1 NNE 3 7 1013.9 - 0.0 - - - - - - -
25/01:30pm 21.7 NNW 1 3 1014.4 - 0.0 - - - - - - -
25/01:00pm 21.3 NW 3 5 1014.7 - 0.0 - - - - - - -
25/12:30pm 21.4 E 1 3 1015.4 - 0.0 - - - - - - -
25/12:00pm 20.1 SE 3 5 1015.6 - 0.0 - - - - - - -
25/11:30am 19.7 W 3 6 1016.8 - 0.0 - - - - - - -
25/11:00am 19.8 NW 2 5 1017.4 - 0.0 - - - - - - -
25/10:30am 18.8 N 4 7 1017.8 - 0.0 - - - - - - -
25/10:00am 18.0 NW 2 4 1018.2 - 0.0 - - - - - - -
25/09:30am 16.3 NW 3 6 1018.3 - 0.0 - - - - - - -
25/09:00am 13.6 CALM 0 0 1018.5 - 0.0 - - - - - - -
25/08:59am 13.2 CALM 0 0 1018.5 - 0.0 - - - - - - -
25/08:30am 8.1 CALM 0 0 1018.6 - 0.0 - - - - - - -
25/08:00am 5.2 CALM 0 0 1018.3 - 0.0 - - - - - - -
25/07:30am 3.4 CALM 0 0 1018.1 - 0.0 - - - - - - -
25/07:00am 2.9 CALM 0 0 1018.0 - 0.0 - - - - - - -
25/06:30am 2.8 CALM 0 0 1017.7 - 0.0 - - - - - - -
25/06:00am 3.2 CALM 0 0 1017.3 - 0.0 - - - - - - -
25/05:30am 3.5 CALM 0 0 1017.0 - 0.0 - - - - - - -
25/05:00am 4.0 CALM 0 0 1017.1 - 0.0 - - - - - - -
25/04:30am 4.4 CALM 0 0 1017.0 - 0.0 - - - - - - -
25/04:00am 4.8 CALM 0 0 1017.0 - 0.0 - - - - - - -
25/03:30am 5.3 CALM 0 0 1016.8 - 0.0 - - - - - - -
25/03:00am 5.7 CALM 0 0 1017.1 - 0.0 - - - - - - -
25/02:30am 6.0 CALM 0 0 1017.3 - 0.0 - - - - - - -
25/02:00am 6.6 CALM 0 0 1017.2 - 0.0 - - - - - - -
25/01:30am 6.3 CALM 0 1 1017.3 - 0.0 - - - - - - -
25/01:00am 7.4 CALM 0 0 1017.4 - 0.0 - - - - - - -
25/12:30am 8.3 CALM 0 0 1017.5 - 0.0 - - - - - - -
25/12:00am 8.8 CALM 0 0 1017.6 - 0.0 - - - - - - -
 
Date/Time
EST
Temp

°C
Wind Pressure Rain
since 9am
mm
Weather Cloud Vis
km
Sea
Height
m
Swell
Dir
 
Speed
knots
Gust
knots
hPa Trend Height
m
Period
s
Dir
24/11:30pm 9.7 NW 1 2 1017.8 - 0.0 - - - - - - -
24/11:00pm 10.0 NNW 1 3 1017.8 - 0.0 - - - - - - -
24/10:30pm 13.4 WNW 2 5 1017.8 - 0.0 - - - - - - -
24/10:00pm 14.2 WNW 3 9 1018.0 - 0.0 - - - - - - -
24/09:30pm 15.5 W 4 9 1017.9 - 0.0 - - - - - - -
24/09:00pm 15.8 W 6 11 1017.5 - 0.0 - - - - - - -
24/08:30pm 14.9 WNW 4 8 1017.0 - 0.0 - - - - - - -
24/08:28pm 15.0 WNW 3 8 1016.9 - 0.0 - - - - - - -
24/08:00pm 9.8 N 2 3 1016.7 - 0.0 - - - - - - -
24/07:30pm 10.6 NNW 2 4 1016.3 - 0.0 - - - - - - -
24/07:00pm 9.9 WNW 1 3 1016.1 - 0.0 - - - - - - -
24/06:30pm 11.8 CALM 0 0 1016.0 - 0.0 - - - - - - -
24/06:00pm 12.9 CALM 0 0 1015.7 - 0.0 - - - - - - -
24/05:30pm 15.4 W 2 3 1015.3 - 0.0 - - - - - - -
24/05:00pm 18.3 WNW 3 6 1014.7 - 0.0 - - - - - - -
24/04:30pm 20.2 WNW 4 6 1014.5 - 0.0 - - - - - - -
24/04:00pm 21.8 W 6 11 1014.3 - 0.0 - - - - - - -
24/03:30pm 22.2 W 6 11 1014.2 - 0.0 - - - - - - -
24/03:00pm 22.5 W 6 10 1014.0 - 0.0 - - - - - - -
24/02:30pm 23.1 W 5 11 1013.7 - 0.0 - - - - - - -
24/02:00pm 22.9 WSW 6 9 1013.6 - 0.0 - - - - - - -
24/01:30pm 22.4 W 3 7 1014.0 - 0.0 - - - - - - -
24/01:00pm 21.8 NW 5 8 1014.5 - 0.0 - - - - - - -
24/12:30pm 20.8 WNW 5 10 1015.2 - 0.0 - - - - - - -
24/12:00pm 20.4 NW 4 6 1015.9 - 0.0 - - - - - - -
24/11:30am 19.3 NW 3 6 1016.6 - 0.0 - - - - - - -
24/11:00am 18.4 NW 5 10 1017.4 - 0.0 - - - - - - -
24/10:30am 17.7 NW 6 11 1018.2 - 0.0 - - - - - - -
24/10:00am 17.1 NW 6 12 1018.5 - 0.0 - - - - - - -
24/09:30am 16.3 NW 6 11 1018.7 - 0.0 - - - - - - -
24/09:00am 15.3 NNW 4 9 1019.0 - 0.0 - - - - - - -
24/08:30am 14.8 NW 5 9 1019.0 - 0.0 - - - - - - -
24/08:00am 13.9 WNW 5 9 1018.9 - 0.0 - - - - - - -
24/07:30am 13.1 WNW 6 11 1018.6 - 0.0 - - - - - - -
24/07:00am 10.6 WNW 3 6 1018.6 - 0.0 - - - - - - -
24/06:30am 7.8 NW 1 3 1018.5 - 0.0 - - - - - - -
24/06:00am 8.8 NW 2 4 1018.4 - 0.0 - - - - - - -
24/05:30am 9.8 WSW 2 6 1018.6 - 0.0 - - - - - - -
24/05:00am 10.2 WNW 3 5 1018.6 - 0.0 - - - - - - -
24/04:30am 9.9 CALM 0 3 1019.0 - 0.0 - - - - - - -
24/04:00am 11.1 N 2 4 1018.9 - 0.0 - - - - - - -
24/03:30am 11.9 NW 3 4 1018.8 - 0.0 - - - - - - -
24/03:00am 11.5 E 1 2 1018.9 - 0.0 - - - - - - -
24/02:30am 14.3 WNW 6 11 1018.4 - 0.0 - - - - - - -
24/02:00am 14.7 WNW 6 12 1018.1 - 0.0 - - - - - - -
24/01:30am 14.1 WNW 4 7 1018.2 - 0.0 - - - - - - -
24/01:00am 14.9 WNW 5 10 1018.2 - 0.0 - - - - - - -
24/12:30am 14.9 W 4 8 1018.2 - 0.0 - - - - - - -
24/12:00am 15.3 W 5 10 1018.2 - 0.0 - - - - - - -
 
Date/Time
EST
Temp

°C
Wind Pressure Rain
since 9am
mm
Weather Cloud Vis
km
Sea
Height
m
Swell
Dir
 
Speed
knots
Gust
knots
hPa Trend Height
m
Period
s
Dir
23/11:30pm 15.8 WNW 6 10 1018.2 - 0.0 - - - - - - -
23/11:00pm 15.5 W 4 10 1018.3 - 0.0 - - - - - - -
23/10:30pm 16.3 W 6 10 1018.0 - 0.0 - - - - - - -
23/10:00pm 15.9 WNW 4 10 1017.9 - 0.0 - - - - - - -
23/09:30pm 17.0 W 6 13 1017.7 - 0.0 - - - - - - -
23/09:00pm 17.4 W 8 13 1017.6 - 0.0 - - - - - - -
23/08:30pm 17.8 W 7 11 1017.5 - 0.0 - - - - - - -
23/08:00pm 18.2 W 7 13 1017.3 - 0.0 - - - - - - -
23/07:30pm 18.8 W 8 12 1017.1 - 0.0 - - - - - - -
23/07:00pm 19.4 W 5 10 1016.5 - 0.0 - - - - - - -
23/06:30pm 20.0 W 7 9 1015.8 - 0.0 - - - - - - -
23/06:00pm 20.3 W 5 10 1015.7 - 0.0 - - - - - - -
23/05:30pm 21.0 WSW 5 10 1015.0 - 0.0 - - - - - - -
23/05:00pm 22.4 W 8 14 1014.1 - 0.0 - - - - - - -
23/04:30pm 23.3 W 8 16 1013.5 - 0.0 - - - - - - -
23/04:00pm 24.5 W 10 21 1013.1 - 0.0 - - - - - - -
23/03:30pm 25.3 WSW 11 17 1012.5 - 0.0 - - - - - - -
23/03:00pm 26.1 W 9 17 1011.9 - 0.0 - - - - - - -
23/02:30pm 27.1 W 10 19 1011.6 - 0.0 - - - - - - -
23/02:00pm 27.4 W 10 19 1011.1 - 0.0 - - - - - - -
23/01:30pm 27.4 W 12 20 1011.1 - 0.0 - - - - - - -
23/01:00pm 28.4 W 9 19 1011.2 - 0.0 - - - - - - -
23/12:30pm 28.3 WNW 7 13 1011.2 - 0.0 - - - - - - -
23/12:00pm 27.9 NW 4 9 1011.6 - 0.0 - - - - - - -
23/11:30am 26.8 NNW 6 11 1012.5 - 0.0 - - - - - - -
23/11:00am 26.5 N 5 8 1013.3 - 0.0 - - - - - - -
23/10:30am 26.1 NW 7 14 1014.0 - 0.0 - - - - - - -
23/10:00am 25.3 NW 6 10 1014.4 - 0.0 - - - - - - -
23/09:30am 24.4 NW 8 18 1014.7 - 0.0 - - - - - - -
23/09:00am 22.3 NNW 4 11 1014.9 - 0.0 - - - - - - -
23/08:57am 21.9 N 4 6 1015.0 - 0.0 - - - - - - -
23/08:30am 16.7 N 2 5 1015.2 - 0.0 - - - - - - -
23/08:00am 12.5 NNW 1 2 1015.5 - 0.0 - - - - - - -
23/07:30am 9.8 CALM 0 2 1015.8 - 0.0 - - - - - - -
23/07:00am 8.7 CALM 0 0 1015.9 - 0.0 - - - - - - -
23/06:30am 8.5 CALM 0 0 1015.9 - 0.0 - - - - - - -
23/06:00am 8.6 CALM 0 0 1016.1 - 0.0 - - - - - - -
23/05:30am 8.7 CALM 0 0 1016.2 - 0.0 - - - - - - -
23/05:00am 8.9 CALM 0 0 1016.6 - 0.0 - - - - - - -
23/04:30am 8.9 CALM 0 0 1016.6 - 0.0 - - - - - - -
23/04:00am 9.1 CALM 0 0 1016.8 - 0.0 - - - - - - -
23/03:30am 9.3 CALM 0 0 1017.0 - 0.0 - - - - - - -
23/03:00am 9.6 CALM 0 0 1017.4 - 0.0 - - - - - - -
23/02:30am 9.7 CALM 0 0 1017.7 - 0.0 - - - - - - -
23/02:00am 10.0 CALM 0 0 1017.8 - 0.0 - - - - - - -
23/01:30am 10.0 CALM 0 0 1017.9 - 0.0 - - - - - - -
23/01:00am 10.1 CALM 0 0 1018.0 - 0.0 - - - - - - -
23/12:30am 10.6 CALM 0 0 1018.3 - 0.0 - - - - - - -
23/12:00am 10.8 CALM 0 0 1018.6 - 0.0 - - - - - - -
 
Date/Time
EST
Temp

°C
Wind Pressure Rain
since 9am
mm
Weather Cloud Vis
km
Sea
Height
m
Swell
Dir
 
Speed
knots
Gust
knots
hPa Trend Height
m
Period
s
Dir
22/11:30pm 11.1 CALM 0 0 1018.8 - 0.0 - - - - - - -

Other Formats:

Comma delimited format used in spreadsheet applications
http://www.bom.gov.au/fwo/IDN60701/IDN60701.95767.axf

JavaScript Object Notation format (JSON) in row-major order
http://www.bom.gov.au/fwo/IDN60701/IDN60701.95767.json